Norwegian Breakaway — C6ZJ3 — position and weather

sailwx.info

Track history (hours):
 
Tides and Currents Weather Stations Pressure Air Temp Water Temp Dewpoint Dewpoint Depression Visibility Wind Speed Wind Dir Waves Ship Positions

Norwegian Breakaway

Last reported at 2018-Oct-16 23:44 UTC. Time now 2018-Oct-20 13:39 UTC.
Position N 40°25' W 073°48'.

Length 325 m; draft 8.6 m.

Type: Passenger vessel. MMSI: 311050800.

Date/timePositionNaut miles runAvg speedWind from/ knotsBaromVisibWave heightAir tempDewpointWater temp
2018-Oct-16 23:44N 40°25' W 073°48'313.0
2018-Oct-16 23:30N 40°28' W 073°51'715.7
2018-Oct-16 23:03N 40°31' W 073°59'120.6
2018-Oct-16 23:00N 40°31' W 074°00'917.5
2018-Oct-16 22:30N 40°40' W 074°03'612.6
2018-Oct-16 22:04N 40°45' W 074°01'111.4
2018-Oct-16 22:00N 40°46' W 074°01'1 1.3
2018-Oct-16 21:30N 40°46' W 073°60'0 0.0
2018-Oct-16 21:03N 40°46' W 073°60'0 0.0
2018-Oct-16 21:00N 40°46' W 073°60'0 0.0
2018-Oct-16 20:30N 40°46' W 073°60'0 0.0
2018-Oct-16 20:03N 40°46' W 073°60'0 0.0
2018-Oct-16 20:00N 40°46' W 073°60'0 0.0
2018-Oct-16 19:30N 40°46' W 073°60'0 0.0
2018-Oct-16 19:02N 40°46' W 073°60'0 0.0
2018-Oct-16 18:59N 40°46' W 073°60'0 0.0
2018-Oct-16 18:28N 40°46' W 073°60'0 0.0
2018-Oct-16 18:01N 40°46' W 073°60'0 0.0
2018-Oct-16 17:58N 40°46' W 073°60'0 0.0
2018-Oct-16 17:27N 40°46' W 073°60'0 0.0
2018-Oct-16 17:00N 40°46' W 073°60'0 0.0
2018-Oct-16 16:29N 40°46' W 073°60'0 0.0
2018-Oct-16 16:02N 40°46' W 073°60'0 0.0
2018-Oct-16 15:59N 40°46' W 073°60'0 0.0
2018-Oct-16 15:28N 40°46' W 073°60'0 0.0
2018-Oct-16 15:01N 40°46' W 073°60'0 0.0
2018-Oct-16 14:58N 40°46' W 073°60'0 0.0
2018-Oct-16 14:30N 40°46' W 073°60'0 0.0
2018-Oct-16 14:00N 40°46' W 073°60'0 0.0
2018-Oct-16 13:30N 40°46' W 073°60'0 0.0
2018-Oct-16 13:02N 40°46' W 073°60'0 0.0
2018-Oct-16 12:59N 40°46' W 073°60'0 0.0
2018-Oct-16 12:25N 40°46' W 073°60'0 0.0
2018-Oct-16 12:03N 40°46' W 073°60'0 0.0
2018-Oct-16 12:00N 40°46' W 073°60'0 0.0
2018-Oct-16 11:30N 40°46' W 073°60'0 0.0
2018-Oct-16 11:02N 40°46' W 073°60'0 0.0
2018-Oct-16 10:59N 40°46' W 073°60'0 0.0
2018-Oct-16 10:28N 40°46' W 073°60'0 0.0
2018-Oct-16 09:58N 40°46' W 073°60'0 0.0
2018-Oct-16 09:28N 40°46' W 073°60'0 0.0
2018-Oct-16 09:01N 40°46' W 073°60'0 0.0
2018-Oct-16 08:58N 40°46' W 073°60'0 0.0
2018-Oct-16 08:28N 40°46' W 073°60'0 0.0
2018-Oct-16 08:02N 40°46' W 073°60'0 0.0
2018-Oct-16 07:59N 40°46' W 073°60'0 0.0
2018-Oct-16 07:30N 40°46' W 073°60'0 0.0
2018-Oct-16 07:03N 40°46' W 073°60'0 0.0
2018-Oct-16 07:00N 40°46' W 073°60'0 0.0
2018-Oct-16 06:30N 40°46' W 073°60'0 0.0
2018-Oct-16 06:03N 40°46' W 073°60'0 0.9
2018-Oct-16 06:00N 40°46' W 073°60'3 5.6
2018-Oct-16 05:30N 40°44' W 074°01'613.3
2018-Oct-16 05:03N 40°38' W 074°03'1 9.8
2018-Oct-16 05:00N 40°37' W 074°03'714.9
2018-Oct-16 04:30N 40°31' W 073°58'817.0
2018-Oct-16 04:02N 40°27' W 073°49'0 9.7
2018-Oct-16 04:00N 40°27' W 073°49'914.6
2018-Oct-16 03:23N 40°22' W 073°39'  
2018-Oct-10 20:36N 37°16' W 026°57'221.3
2018-Oct-10 20:30N 37°17' W 026°54'920.7
2018-Oct-10 20:03N 37°20' W 026°43'120.0
2018-Oct-10 20:00N 37°20' W 026°42'1121.2
2018-Oct-10 19:30N 37°23' W 026°29'1021.3
2018-Oct-10 19:03N 37°26' W 026°17'121.3
2018-Oct-10 19:00N 37°26' W 026°16'1121.2
2018-Oct-10 18:30N 37°30' W 026°04'920.4
2018-Oct-10 18:03N 37°34' W 025°53'121.0
2018-Oct-10 18:00N 37°34' W 025°52'1020.6
2018-Oct-10 17:31N 37°41' W 025°42'4 8.6
2018-Oct-10 17:03N 37°44' W 025°40'0 2.8
2018-Oct-10 17:00N 37°44' W 025°40'0 0.0
2018-Oct-10 16:30N 37°44' W 025°40'0 0.0
2018-Oct-10 16:02N 37°44' W 025°40'0 0.0
2018-Oct-10 15:59N 37°44' W 025°40'0 0.0
2018-Oct-10 15:29N 37°44' W 025°40'0 0.0
2018-Oct-10 15:02N 37°44' W 025°40'0 0.0
2018-Oct-10 14:59N 37°44' W 025°40'0 0.0
2018-Oct-10 14:29N 37°44' W 025°40'0 0.0
2018-Oct-10 14:00N 37°44' W 025°40'0 0.0
2018-Oct-10 13:29N 37°44' W 025°40'0 0.0
2018-Oct-10 12:58N 37°44' W 025°40'0 0.0
2018-Oct-10 12:28N 37°44' W 025°40'0 0.0
2018-Oct-10 12:01N 37°44' W 025°40'0 0.0
2018-Oct-10 11:58N 37°44' W 025°40'0 0.0
2018-Oct-10 11:28N 37°44' W 025°40'0 0.0
2018-Oct-10 11:01N 37°44' W 025°40'0 0.0
2018-Oct-10 10:58N 37°44' W 025°40'0 0.0
2018-Oct-10 10:28N 37°44' W 025°40'0 0.0
2018-Oct-10 10:01N 37°44' W 025°40'0 0.0
2018-Oct-10 09:58N 37°44' W 025°40'0 0.0
2018-Oct-10 09:29N 37°44' W 025°40'0 0.0
2018-Oct-10 09:03N 37°44' W 025°40'0 0.0
2018-Oct-10 09:00N 37°44' W 025°40'0 0.0
2018-Oct-10 08:30N 37°44' W 025°40'0 0.0
2018-Oct-10 08:03N 37°44' W 025°40'0 0.0
2018-Oct-10 08:00N 37°44' W 025°40'0 0.1
2018-Oct-10 07:31N 37°44' W 025°40'2 3.6
2018-Oct-10 07:04N 37°44' W 025°38'0 9.8
2018-Oct-10 07:01N 37°43' W 025°37'714.0
2018-Oct-10 06:30N 37°40' W 025°30'715.1
2018-Oct-10 06:03N 37°40' W 025°21'115.1
2018-Oct-10 06:00N 37°40' W 025°20'815.6
2018-Oct-10 05:30N 37°41' W 025°11'  
2018-Oct-07 20:51N 50°51' W 009°25'719.9
2018-Oct-07 20:29N 50°56' W 009°17'919.9
2018-Oct-07 20:02N 51°02' W 009°06'119.0
2018-Oct-07 20:00N 51°02' W 009°05'1020.2
2018-Oct-07 19:30N 51°09' W 008°52'920.3
2018-Oct-07 19:03N 51°14' W 008°41'121.0
2018-Oct-07 18:59N 51°15' W 008°39'1020.3
2018-Oct-07 18:30N 51°22' W 008°28'919.7
2018-Oct-07 18:03N 51°29' W 008°20'119.9
2018-Oct-07 18:00N 51°30' W 008°20'1019.7
2018-Oct-07 17:30N 51°40' W 008°15'715.7
2018-Oct-07 17:03N 51°47' W 008°15'113.2
2018-Oct-07 17:00N 51°47' W 008°16'4 7.8
2018-Oct-07 16:31N 51°51' W 008°18'0 0.3
2018-Oct-07 16:01N 51°51' W 008°18'0 0.0
2018-Oct-07 15:59N 51°51' W 008°18'0 0.0
2018-Oct-07 15:30N 51°51' W 008°18'0 0.0
2018-Oct-07 15:03N 51°51' W 008°18'0 0.0
2018-Oct-07 15:00N 51°51' W 008°18'0 0.0
2018-Oct-07 14:30N 51°51' W 008°18'0 0.0
2018-Oct-07 13:59N 51°51' W 008°18'0 0.0
2018-Oct-07 13:29N 51°51' W 008°18'0 0.0
2018-Oct-07 13:02N 51°51' W 008°18'0 0.0
2018-Oct-07 12:59N 51°51' W 008°18'0 0.0
2018-Oct-07 12:29N 51°51' W 008°18'0 0.0
2018-Oct-07 12:02N 51°51' W 008°18'0 0.0
2018-Oct-07 11:59N 51°51' W 008°18'0 0.0
2018-Oct-07 11:29N 51°51' W 008°18'0 0.0
2018-Oct-07 11:02N 51°51' W 008°18'0 0.0
2018-Oct-07 10:59N 51°51' W 008°18'0 0.0
2018-Oct-07 10:25N 51°51' W 008°18'0 0.0
2018-Oct-07 10:01N 51°51' W 008°18'0 0.0
2018-Oct-07 09:58N 51°51' W 008°18'0 0.2
2018-Oct-07 09:33N 51°51' W 008°18'0 0.1
2018-Oct-07 09:30N 51°51' W 008°18'0 2.9
2018-Oct-07 09:28N 51°51' W 008°18'0 0.3
2018-Oct-07 09:10N 51°51' W 008°18'0 0.9
2018-Oct-07 09:03N 51°51' W 008°18'023.9
2018-Oct-07 09:03N 51°51' W 008°18'0 4.7
2018-Oct-07 09:01N 51°51' W 008°18'014.0
2018-Oct-07 09:00N 51°51' W 008°18'010.4
2018-Oct-07 09:00N 51°51' W 008°18'0 1.3
2018-Oct-07 08:58N 51°51' W 008°18'0 0.2
2018-Oct-07 08:28N 51°51' W 008°18'011.0
2018-Oct-07 08:28N 51°51' W 008°18'0 0.0
2018-Oct-07 08:03N 51°51' W 008°18'0 0.0
2018-Oct-07 07:57N 51°51' W 008°18'0 0.0
2018-Oct-07 07:30N 51°51' W 008°18'0 0.0
2018-Oct-07 07:03N 51°51' W 008°18'0 0.0
2018-Oct-07 06:57N 51°51' W 008°18'0 0.0
2018-Oct-07 06:30N 51°51' W 008°18'0 0.0
2018-Oct-07 06:03N 51°51' W 008°18'0 0.0
2018-Oct-07 06:00N 51°51' W 008°18'0 0.1
2018-Oct-07 05:30N 51°51' W 008°18'2 3.4
2018-Oct-07 05:04N 51°51' W 008°16'0 9.6
2018-Oct-07 05:00N 51°50' W 008°16'510.4
2018-Oct-07 04:30N 51°45' W 008°15'510.7
2018-Oct-07 04:03N 51°41' W 008°10'111.4
2018-Oct-07 04:00N 51°41' W 008°09'611.5
2018-Oct-07 03:30N 51°37' W 008°03'511.4
2018-Oct-07 03:03N 51°33' W 007°57'111.2
2018-Oct-07 03:01N 51°33' W 007°56'611.2
2018-Oct-07 02:30N 51°29' W 007°49'511.2
2018-Oct-07 02:03N 51°26' W 007°43'111.2
2018-Oct-07 02:00N 51°25' W 007°43'611.2
2018-Oct-07 01:30N 51°21' W 007°36'510.8
2018-Oct-07 01:03N 51°18' W 007°31'110.7
2018-Oct-07 00:56N 51°17' W 007°29'  
Track history (hours):
 
Tides and Currents Weather Stations Pressure Air Temp Water Temp Dewpoint Dewpoint Depression Visibility Wind Speed Wind Dir Waves Ship Positions

Norwegian Breakaway

Last reported at 2018-Oct-16 23:44 UTC. Time now 2018-Oct-20 13:39 UTC.
Position N 40°25' W 073°48'.

Length 325 m; draft 8.6 m.

Type: Passenger vessel. MMSI: 311050800.

Date/timePositionNaut miles runAvg speedWind from/ knotsBaromVisibWave heightAir tempDewpointWater temp
2018-Oct-16 23:44N 40°25' W 073°48'313.0
2018-Oct-16 23:30N 40°28' W 073°51'715.7
2018-Oct-16 23:03N 40°31' W 073°59'120.6
2018-Oct-16 23:00N 40°31' W 074°00'917.5
2018-Oct-16 22:30N 40°40' W 074°03'612.6
2018-Oct-16 22:04N 40°45' W 074°01'111.4
2018-Oct-16 22:00N 40°46' W 074°01'1 1.3
2018-Oct-16 21:30N 40°46' W 073°60'0 0.0
2018-Oct-16 21:03N 40°46' W 073°60'0 0.0
2018-Oct-16 21:00N 40°46' W 073°60'0 0.0
2018-Oct-16 20:30N 40°46' W 073°60'0 0.0
2018-Oct-16 20:03N 40°46' W 073°60'0 0.0
2018-Oct-16 20:00N 40°46' W 073°60'0 0.0
2018-Oct-16 19:30N 40°46' W 073°60'0 0.0
2018-Oct-16 19:02N 40°46' W 073°60'0 0.0
2018-Oct-16 18:59N 40°46' W 073°60'0 0.0
2018-Oct-16 18:28N 40°46' W 073°60'0 0.0
2018-Oct-16 18:01N 40°46' W 073°60'0 0.0
2018-Oct-16 17:58N 40°46' W 073°60'0 0.0
2018-Oct-16 17:27N 40°46' W 073°60'0 0.0
2018-Oct-16 17:00N 40°46' W 073°60'0 0.0
2018-Oct-16 16:29N 40°46' W 073°60'0 0.0
2018-Oct-16 16:02N 40°46' W 073°60'0 0.0
2018-Oct-16 15:59N 40°46' W 073°60'0 0.0
2018-Oct-16 15:28N 40°46' W 073°60'0 0.0
2018-Oct-16 15:01N 40°46' W 073°60'0 0.0
2018-Oct-16 14:58N 40°46' W 073°60'0 0.0
2018-Oct-16 14:30N 40°46' W 073°60'0 0.0
2018-Oct-16 14:00N 40°46' W 073°60'0 0.0
2018-Oct-16 13:30N 40°46' W 073°60'0 0.0
2018-Oct-16 13:02N 40°46' W 073°60'0 0.0
2018-Oct-16 12:59N 40°46' W 073°60'0 0.0
2018-Oct-16 12:25N 40°46' W 073°60'0 0.0
2018-Oct-16 12:03N 40°46' W 073°60'0 0.0
2018-Oct-16 12:00N 40°46' W 073°60'0 0.0
2018-Oct-16 11:30N 40°46' W 073°60'0 0.0
2018-Oct-16 11:02N 40°46' W 073°60'0 0.0
2018-Oct-16 10:59N 40°46' W 073°60'0 0.0
2018-Oct-16 10:28N 40°46' W 073°60'0 0.0
2018-Oct-16 09:58N 40°46' W 073°60'0 0.0
2018-Oct-16 09:28N 40°46' W 073°60'0 0.0
2018-Oct-16 09:01N 40°46' W 073°60'0 0.0
2018-Oct-16 08:58N 40°46' W 073°60'0 0.0
2018-Oct-16 08:28N 40°46' W 073°60'0 0.0
2018-Oct-16 08:02N 40°46' W 073°60'0 0.0
2018-Oct-16 07:59N 40°46' W 073°60'0 0.0
2018-Oct-16 07:30N 40°46' W 073°60'0 0.0
2018-Oct-16 07:03N 40°46' W 073°60'0 0.0
2018-Oct-16 07:00N 40°46' W 073°60'0 0.0
2018-Oct-16 06:30N 40°46' W 073°60'0 0.0
2018-Oct-16 06:03N 40°46' W 073°60'0 0.9
2018-Oct-16 06:00N 40°46' W 073°60'3 5.6
2018-Oct-16 05:30N 40°44' W 074°01'613.3
2018-Oct-16 05:03N 40°38' W 074°03'1 9.8
2018-Oct-16 05:00N 40°37' W 074°03'714.9
2018-Oct-16 04:30N 40°31' W 073°58'817.0
2018-Oct-16 04:02N 40°27' W 073°49'0 9.7
2018-Oct-16 04:00N 40°27' W 073°49'914.6
2018-Oct-16 03:23N 40°22' W 073°39'  
2018-Oct-10 20:36N 37°16' W 026°57'221.3
2018-Oct-10 20:30N 37°17' W 026°54'920.7
2018-Oct-10 20:03N 37°20' W 026°43'120.0
2018-Oct-10 20:00N 37°20' W 026°42'1121.2
2018-Oct-10 19:30N 37°23' W 026°29'1021.3
2018-Oct-10 19:03N 37°26' W 026°17'121.3
2018-Oct-10 19:00N 37°26' W 026°16'1121.2
2018-Oct-10 18:30N 37°30' W 026°04'920.4
2018-Oct-10 18:03N 37°34' W 025°53'121.0
2018-Oct-10 18:00N 37°34' W 025°52'1020.6
2018-Oct-10 17:31N 37°41' W 025°42'4 8.6
2018-Oct-10 17:03N 37°44' W 025°40'0 2.8
2018-Oct-10 17:00N 37°44' W 025°40'0 0.0
2018-Oct-10 16:30N 37°44' W 025°40'0 0.0
2018-Oct-10 16:02N 37°44' W 025°40'0 0.0
2018-Oct-10 15:59N 37°44' W 025°40'0 0.0
2018-Oct-10 15:29N 37°44' W 025°40'0 0.0
2018-Oct-10 15:02N 37°44' W 025°40'0 0.0
2018-Oct-10 14:59N 37°44' W 025°40'0 0.0
2018-Oct-10 14:29N 37°44' W 025°40'0 0.0
2018-Oct-10 14:00N 37°44' W 025°40'0 0.0
2018-Oct-10 13:29N 37°44' W 025°40'0 0.0
2018-Oct-10 12:58N 37°44' W 025°40'0 0.0
2018-Oct-10 12:28N 37°44' W 025°40'0 0.0
2018-Oct-10 12:01N 37°44' W 025°40'0 0.0
2018-Oct-10 11:58N 37°44' W 025°40'0 0.0
2018-Oct-10 11:28N 37°44' W 025°40'0 0.0
2018-Oct-10 11:01N 37°44' W 025°40'0 0.0
2018-Oct-10 10:58N 37°44' W 025°40'0 0.0
2018-Oct-10 10:28N 37°44' W 025°40'0 0.0
2018-Oct-10 10:01N 37°44' W 025°40'0 0.0
2018-Oct-10 09:58N 37°44' W 025°40'0 0.0
2018-Oct-10 09:29N 37°44' W 025°40'0 0.0
2018-Oct-10 09:03N 37°44' W 025°40'0 0.0
2018-Oct-10 09:00N 37°44' W 025°40'0 0.0
2018-Oct-10 08:30N 37°44' W 025°40'0 0.0
2018-Oct-10 08:03N 37°44' W 025°40'0 0.0
2018-Oct-10 08:00N 37°44' W 025°40'0 0.1
2018-Oct-10 07:31N 37°44' W 025°40'2 3.6
2018-Oct-10 07:04N 37°44' W 025°38'0 9.8
2018-Oct-10 07:01N 37°43' W 025°37'714.0
2018-Oct-10 06:30N 37°40' W 025°30'715.1
2018-Oct-10 06:03N 37°40' W 025°21'115.1
2018-Oct-10 06:00N 37°40' W 025°20'815.6
2018-Oct-10 05:30N 37°41' W 025°11'  
2018-Oct-07 20:51N 50°51' W 009°25'719.9
2018-Oct-07 20:29N 50°56' W 009°17'919.9
2018-Oct-07 20:02N 51°02' W 009°06'119.0
2018-Oct-07 20:00N 51°02' W 009°05'1020.2
2018-Oct-07 19:30N 51°09' W 008°52'920.3
2018-Oct-07 19:03N 51°14' W 008°41'121.0
2018-Oct-07 18:59N 51°15' W 008°39'1020.3
2018-Oct-07 18:30N 51°22' W 008°28'919.7
2018-Oct-07 18:03N 51°29' W 008°20'119.9
2018-Oct-07 18:00N 51°30' W 008°20'1019.7
2018-Oct-07 17:30N 51°40' W 008°15'715.7
2018-Oct-07 17:03N 51°47' W 008°15'113.2
2018-Oct-07 17:00N 51°47' W 008°16'4 7.8
2018-Oct-07 16:31N 51°51' W 008°18'0 0.3
2018-Oct-07 16:01N 51°51' W 008°18'0 0.0
2018-Oct-07 15:59N 51°51' W 008°18'0 0.0
2018-Oct-07 15:30N 51°51' W 008°18'0 0.0
2018-Oct-07 15:03N 51°51' W 008°18'0 0.0
2018-Oct-07 15:00N 51°51' W 008°18'0 0.0
2018-Oct-07 14:30N 51°51' W 008°18'0 0.0
2018-Oct-07 13:59N 51°51' W 008°18'0 0.0
2018-Oct-07 13:29N 51°51' W 008°18'0 0.0
2018-Oct-07 13:02N 51°51' W 008°18'0 0.0
2018-Oct-07 12:59N 51°51' W 008°18'0 0.0
2018-Oct-07 12:29N 51°51' W 008°18'0 0.0
2018-Oct-07 12:02N 51°51' W 008°18'0 0.0
2018-Oct-07 11:59N 51°51' W 008°18'0 0.0
2018-Oct-07 11:29N 51°51' W 008°18'0 0.0
2018-Oct-07 11:02N 51°51' W 008°18'0 0.0
2018-Oct-07 10:59N 51°51' W 008°18'0 0.0
2018-Oct-07 10:25N 51°51' W 008°18'0 0.0
2018-Oct-07 10:01N 51°51' W 008°18'0 0.0
2018-Oct-07 09:58N 51°51' W 008°18'0 0.2
2018-Oct-07 09:33N 51°51' W 008°18'0 0.1
2018-Oct-07 09:30N 51°51' W 008°18'0 2.9
2018-Oct-07 09:28N 51°51' W 008°18'0 0.3
2018-Oct-07 09:10N 51°51' W 008°18'0 0.9
2018-Oct-07 09:03N 51°51' W 008°18'023.9
2018-Oct-07 09:03N 51°51' W 008°18'0 4.7
2018-Oct-07 09:01N 51°51' W 008°18'014.0
2018-Oct-07 09:00N 51°51' W 008°18'010.4
2018-Oct-07 09:00N 51°51' W 008°18'0 1.3
2018-Oct-07 08:58N 51°51' W 008°18'0 0.2
2018-Oct-07 08:28N 51°51' W 008°18'011.0
2018-Oct-07 08:28N 51°51' W 008°18'0 0.0
2018-Oct-07 08:03N 51°51' W 008°18'0 0.0
2018-Oct-07 07:57N 51°51' W 008°18'0 0.0
2018-Oct-07 07:30N 51°51' W 008°18'0 0.0
2018-Oct-07 07:03N 51°51' W 008°18'0 0.0
2018-Oct-07 06:57N 51°51' W 008°18'0 0.0
2018-Oct-07 06:30N 51°51' W 008°18'0 0.0
2018-Oct-07 06:03N 51°51' W 008°18'0 0.0
2018-Oct-07 06:00N 51°51' W 008°18'0 0.1
2018-Oct-07 05:30N 51°51' W 008°18'2 3.4
2018-Oct-07 05:04N 51°51' W 008°16'0 9.6
2018-Oct-07 05:00N 51°50' W 008°16'510.4
2018-Oct-07 04:30N 51°45' W 008°15'510.7
2018-Oct-07 04:03N 51°41' W 008°10'111.4
2018-Oct-07 04:00N 51°41' W 008°09'611.5
2018-Oct-07 03:30N 51°37' W 008°03'511.4
2018-Oct-07 03:03N 51°33' W 007°57'111.2
2018-Oct-07 03:01N 51°33' W 007°56'611.2
2018-Oct-07 02:30N 51°29' W 007°49'511.2
2018-Oct-07 02:03N 51°26' W 007°43'111.2
2018-Oct-07 02:00N 51°25' W 007°43'611.2
2018-Oct-07 01:30N 51°21' W 007°36'510.8
2018-Oct-07 01:03N 51°18' W 007°31'110.7
2018-Oct-07 00:56N 51°17' W 007°29'  

Dump ship's entire track history